RKSS/GMP METAR and TAF weather

Enter ICAO airport designator
Station Type Date Time Source
RKSS METAR 2019/02/23 00:00 UTC NOAA

RKSS 230000Z 33002KT 2800 BR NSC 01/M02 Q1025 NOSIG


Station Type Date Time Source
RKSS Decoded METAR 2019/02/23 00:00 UTC NOAA

Seoul / Kimp'O International Airport, Korea, South (RKSS) 37-33N 126-48E 18M
Feb 22, 2019 - 07:00 PM EST / 2019.02.23 0000 UTC
Wind: from the NNW (330 degrees) at 2 MPH (2 KT):0
Visibility: 1 mile(s):0
Weather: mist
Temperature: 33 F (1 C)
Dew Point: 28 F (-2 C)
Relative Humidity: 80%
Pressure (altimeter): 30.27 in. Hg (1025 hPa)
ob: RKSS 230000Z 33002KT 2800 BR NSC 01/M02 Q1025 NOSIG
cycle: 0

Station Type Date Time Source
RKSS TAF 2019/02/22 18:08 UTC NOAA

TAF RKSS 221700Z 2218/2324 06005KT 3500 BR NSC TNM04/2222Z TX12/2306Z TNM03/2322Z
TEMPO 2220/2223 2200
BECMG 2300/2301 15005KT 7000 NSW
BECMG 2317/2318 3500 BR
BECMG 2323/2324 6000 NSW


Example: see airport list